sensor_id;sensor_type;location;lat;lon;timestamp;P1;durP1;ratioP1;P2;durP2;ratioP2
69244;SDS011;56357;52.304;4.870;2023-05-13T00:01:49;8.52;;;4.35;;
69244;SDS011;56357;52.304;4.870;2023-05-13T00:04:15;7.60;;;4.47;;
69244;SDS011;56357;52.304;4.870;2023-05-13T00:06:42;7.50;;;4.13;;
69244;SDS011;56357;52.304;4.870;2023-05-13T00:09:09;7.85;;;5.13;;
69244;SDS011;56357;52.304;4.870;2023-05-13T00:11:35;6.55;;;3.90;;
69244;SDS011;56357;52.304;4.870;2023-05-13T00:14:02;8.55;;;4.43;;
69244;SDS011;56357;52.304;4.870;2023-05-13T00:16:28;7.47;;;4.35;;
69244;SDS011;56357;52.304;4.870;2023-05-13T00:18:55;7.03;;;3.90;;
69244;SDS011;56357;52.304;4.870;2023-05-13T00:21:21;6.82;;;4.07;;
69244;SDS011;56357;52.304;4.870;2023-05-13T00:23:48;7.32;;;3.92;;
69244;SDS011;56357;52.304;4.870;2023-05-13T00:26:14;7.93;;;4.07;;
69244;SDS011;56357;52.304;4.870;2023-05-13T00:28:41;6.78;;;4.20;;
69244;SDS011;56357;52.304;4.870;2023-05-13T00:31:07;8.27;;;4.23;;
69244;SDS011;56357;52.304;4.870;2023-05-13T00:33:35;8.15;;;4.20;;
69244;SDS011;56357;52.304;4.870;2023-05-13T00:36:01;7.38;;;4.20;;
69244;SDS011;56357;52.304;4.870;2023-05-13T00:38:28;7.00;;;4.05;;
69244;SDS011;56357;52.304;4.870;2023-05-13T00:40:54;8.45;;;4.32;;
69244;SDS011;56357;52.304;4.870;2023-05-13T00:43:20;8.83;;;4.13;;
69244;SDS011;56357;52.304;4.870;2023-05-13T00:45:47;6.47;;;4.28;;
69244;SDS011;56357;52.304;4.870;2023-05-13T00:48:13;7.35;;;4.03;;
69244;SDS011;56357;52.304;4.870;2023-05-13T00:50:40;6.88;;;4.40;;
69244;SDS011;56357;52.304;4.870;2023-05-13T00:53:08;7.10;;;4.28;;
69244;SDS011;56357;52.304;4.870;2023-05-13T00:55:40;7.27;;;3.90;;
69244;SDS011;56357;52.304;4.870;2023-05-13T00:58:08;7.95;;;4.10;;
69244;SDS011;56357;52.304;4.870;2023-05-13T01:00:46;9.48;;;4.35;;
69244;SDS011;56357;52.304;4.870;2023-05-13T01:03:37;7.65;;;4.30;;
69244;SDS011;56357;52.304;4.870;2023-05-13T01:09:07;7.33;;;3.87;;
69244;SDS011;56357;52.304;4.870;2023-05-13T01:11:43;8.38;;;4.40;;
69244;SDS011;56357;52.304;4.870;2023-05-13T01:14:21;7.82;;;4.55;;
69244;SDS011;56357;52.304;4.870;2023-05-13T01:19:46;7.13;;;4.20;;
69244;SDS011;56357;52.304;4.870;2023-05-13T01:22:17;7.43;;;3.87;;
69244;SDS011;56357;52.304;4.870;2023-05-13T01:24:43;8.85;;;4.43;;
69244;SDS011;56357;52.304;4.870;2023-05-13T01:27:10;8.30;;;3.78;;
69244;SDS011;56357;52.304;4.870;2023-05-13T01:29:37;6.40;;;4.10;;
69244;SDS011;56357;52.304;4.870;2023-05-13T01:32:05;7.47;;;3.80;;
69244;SDS011;56357;52.304;4.870;2023-05-13T01:34:33;9.00;;;4.03;;
69244;SDS011;56357;52.304;4.870;2023-05-13T01:37:02;8.73;;;4.10;;
69244;SDS011;56357;52.304;4.870;2023-05-13T01:39:29;6.70;;;4.30;;
69244;SDS011;56357;52.304;4.870;2023-05-13T01:41:57;7.05;;;4.00;;
69244;SDS011;56357;52.304;4.870;2023-05-13T01:44:24;7.22;;;4.20;;
69244;SDS011;56357;52.304;4.870;2023-05-13T01:46:50;7.70;;;4.37;;
69244;SDS011;56357;52.304;4.870;2023-05-13T01:49:17;9.07;;;4.00;;
69244;SDS011;56357;52.304;4.870;2023-05-13T01:51:44;7.10;;;4.15;;
69244;SDS011;56357;52.304;4.870;2023-05-13T01:54:10;10.10;;;4.18;;
69244;SDS011;56357;52.304;4.870;2023-05-13T01:56:37;7.65;;;4.00;;
69244;SDS011;56357;52.304;4.870;2023-05-13T01:59:03;6.70;;;3.87;;
69244;SDS011;56357;52.304;4.870;2023-05-13T02:01:30;7.10;;;3.78;;
69244;SDS011;56357;52.304;4.870;2023-05-13T02:03:57;7.63;;;4.53;;
69244;SDS011;56357;52.304;4.870;2023-05-13T02:06:24;6.10;;;3.85;;
69244;SDS011;56357;52.304;4.870;2023-05-13T02:08:51;7.03;;;4.13;;
69244;SDS011;56357;52.304;4.870;2023-05-13T02:11:18;7.50;;;3.80;;
69244;SDS011;56357;52.304;4.870;2023-05-13T02:13:44;8.07;;;4.57;;
69244;SDS011;56357;52.304;4.870;2023-05-13T02:16:15;10.10;;;4.75;;
69244;SDS011;56357;52.304;4.870;2023-05-13T02:18:43;6.47;;;4.00;;
69244;SDS011;56357;52.304;4.870;2023-05-13T02:21:09;7.45;;;3.90;;
69244;SDS011;56357;52.304;4.870;2023-05-13T02:23:36;7.77;;;4.50;;
69244;SDS011;56357;52.304;4.870;2023-05-13T02:26:02;7.00;;;4.10;;
69244;SDS011;56357;52.304;4.870;2023-05-13T02:28:28;7.50;;;4.53;;
69244;SDS011;56357;52.304;4.870;2023-05-13T02:30:55;7.40;;;4.32;;
69244;SDS011;56357;52.304;4.870;2023-05-13T02:33:21;7.90;;;4.05;;
69244;SDS011;56357;52.304;4.870;2023-05-13T02:35:48;6.77;;;4.13;;
69244;SDS011;56357;52.304;4.870;2023-05-13T02:38:14;8.07;;;4.75;;
69244;SDS011;56357;52.304;4.870;2023-05-13T02:40:41;7.22;;;4.82;;
69244;SDS011;56357;52.304;4.870;2023-05-13T02:43:08;7.07;;;4.57;;
69244;SDS011;56357;52.304;4.870;2023-05-13T02:45:34;7.72;;;5.20;;
69244;SDS011;56357;52.304;4.870;2023-05-13T02:48:01;9.83;;;4.60;;
69244;SDS011;56357;52.304;4.870;2023-05-13T02:50:27;7.60;;;4.40;;
69244;SDS011;56357;52.304;4.870;2023-05-13T02:52:54;7.50;;;4.47;;
69244;SDS011;56357;52.304;4.870;2023-05-13T02:55:20;8.10;;;4.38;;
69244;SDS011;56357;52.304;4.870;2023-05-13T02:57:47;8.90;;;4.50;;
69244;SDS011;56357;52.304;4.870;2023-05-13T03:00:13;11.40;;;4.50;;
69244;SDS011;56357;52.304;4.870;2023-05-13T03:02:41;8.57;;;4.28;;
69244;SDS011;56357;52.304;4.870;2023-05-13T03:05:07;8.40;;;4.75;;
69244;SDS011;56357;52.304;4.870;2023-05-13T03:07:34;7.93;;;4.53;;
69244;SDS011;56357;52.304;4.870;2023-05-13T03:10:00;9.02;;;4.65;;
69244;SDS011;56357;52.304;4.870;2023-05-13T03:12:27;8.53;;;4.50;;
69244;SDS011;56357;52.304;4.870;2023-05-13T03:14:53;8.52;;;4.50;;
69244;SDS011;56357;52.304;4.870;2023-05-13T03:17:20;10.20;;;4.68;;
69244;SDS011;56357;52.304;4.870;2023-05-13T03:19:46;7.72;;;4.50;;
69244;SDS011;56357;52.304;4.870;2023-05-13T03:22:13;9.35;;;4.57;;
69244;SDS011;56357;52.304;4.870;2023-05-13T03:24:39;7.13;;;4.00;;
69244;SDS011;56357;52.304;4.870;2023-05-13T03:27:07;8.43;;;4.63;;
69244;SDS011;56357;52.304;4.870;2023-05-13T03:29:34;7.88;;;4.68;;
69244;SDS011;56357;52.304;4.870;2023-05-13T03:32:00;7.28;;;4.85;;
69244;SDS011;56357;52.304;4.870;2023-05-13T03:34:26;7.22;;;4.60;;
69244;SDS011;56357;52.304;4.870;2023-05-13T03:36:53;9.20;;;5.50;;
69244;SDS011;56357;52.304;4.870;2023-05-13T03:39:19;9.82;;;5.53;;
69244;SDS011;56357;52.304;4.870;2023-05-13T03:41:46;8.93;;;5.20;;
69244;SDS011;56357;52.304;4.870;2023-05-13T03:44:12;9.45;;;4.90;;
69244;SDS011;56357;52.304;4.870;2023-05-13T03:46:38;8.60;;;5.50;;
69244;SDS011;56357;52.304;4.870;2023-05-13T03:49:05;7.83;;;4.90;;
69244;SDS011;56357;52.304;4.870;2023-05-13T03:51:31;10.55;;;5.63;;
69244;SDS011;56357;52.304;4.870;2023-05-13T03:53:58;8.23;;;5.13;;
69244;SDS011;56357;52.304;4.870;2023-05-13T03:56:24;8.90;;;5.13;;
69244;SDS011;56357;52.304;4.870;2023-05-13T03:58:51;9.65;;;5.82;;
69244;SDS011;56357;52.304;4.870;2023-05-13T04:01:17;9.83;;;5.80;;
69244;SDS011;56357;52.304;4.870;2023-05-13T04:03:44;9.60;;;5.60;;
69244;SDS011;56357;52.304;4.870;2023-05-13T04:06:11;10.68;;;6.15;;
69244;SDS011;56357;52.304;4.870;2023-05-13T04:08:38;11.35;;;6.03;;
69244;SDS011;56357;52.304;4.870;2023-05-13T04:11:05;8.90;;;5.95;;
69244;SDS011;56357;52.304;4.870;2023-05-13T04:13:35;11.20;;;5.73;;
69244;SDS011;56357;52.304;4.870;2023-05-13T04:16:01;10.25;;;5.22;;
69244;SDS011;56357;52.304;4.870;2023-05-13T04:18:28;8.18;;;5.38;;
69244;SDS011;56357;52.304;4.870;2023-05-13T04:20:55;10.68;;;5.97;;
69244;SDS011;56357;52.304;4.870;2023-05-13T04:23:21;7.18;;;4.93;;
69244;SDS011;56357;52.304;4.870;2023-05-13T04:25:51;9.53;;;5.40;;
69244;SDS011;56357;52.304;4.870;2023-05-13T04:28:18;8.80;;;5.55;;
69244;SDS011;56357;52.304;4.870;2023-05-13T04:30:45;10.73;;;6.05;;
69244;SDS011;56357;52.304;4.870;2023-05-13T04:33:11;9.15;;;5.82;;
69244;SDS011;56357;52.304;4.870;2023-05-13T04:35:37;9.35;;;6.13;;
69244;SDS011;56357;52.304;4.870;2023-05-13T04:38:04;8.87;;;5.13;;
69244;SDS011;56357;52.304;4.870;2023-05-13T04:40:30;8.23;;;5.57;;
69244;SDS011;56357;52.304;4.870;2023-05-13T04:42:57;10.05;;;6.07;;
69244;SDS011;56357;52.304;4.870;2023-05-13T04:45:23;9.60;;;5.57;;
69244;SDS011;56357;52.304;4.870;2023-05-13T04:47:50;10.07;;;5.50;;
69244;SDS011;56357;52.304;4.870;2023-05-13T04:50:16;7.73;;;4.73;;
69244;SDS011;56357;52.304;4.870;2023-05-13T04:52:42;10.85;;;5.60;;
69244;SDS011;56357;52.304;4.870;2023-05-13T04:55:11;11.20;;;4.93;;
69244;SDS011;56357;52.304;4.870;2023-05-13T04:57:37;10.00;;;5.15;;
69244;SDS011;56357;52.304;4.870;2023-05-13T05:00:04;10.25;;;5.25;;
69244;SDS011;56357;52.304;4.870;2023-05-13T05:02:32;10.53;;;5.90;;
69244;SDS011;56357;52.304;4.870;2023-05-13T05:04:58;12.68;;;6.90;;
69244;SDS011;56357;52.304;4.870;2023-05-13T05:07:25;18.48;;;7.05;;
69244;SDS011;56357;52.304;4.870;2023-05-13T05:09:51;11.68;;;6.05;;
69244;SDS011;56357;52.304;4.870;2023-05-13T05:12:18;15.23;;;5.78;;
69244;SDS011;56357;52.304;4.870;2023-05-13T05:14:44;12.50;;;5.50;;
69244;SDS011;56357;52.304;4.870;2023-05-13T05:17:11;13.15;;;6.18;;
69244;SDS011;56357;52.304;4.870;2023-05-13T05:19:37;16.15;;;6.03;;
69244;SDS011;56357;52.304;4.870;2023-05-13T05:22:04;14.25;;;6.35;;
69244;SDS011;56357;52.304;4.870;2023-05-13T05:24:30;16.35;;;6.88;;
69244;SDS011;56357;52.304;4.870;2023-05-13T05:26:56;13.60;;;5.93;;
69244;SDS011;56357;52.304;4.870;2023-05-13T05:29:23;12.70;;;5.78;;
69244;SDS011;56357;52.304;4.870;2023-05-13T05:31:49;13.45;;;6.78;;
69244;SDS011;56357;52.304;4.870;2023-05-13T05:34:16;11.48;;;5.68;;
69244;SDS011;56357;52.304;4.870;2023-05-13T05:36:42;15.18;;;6.72;;
69244;SDS011;56357;52.304;4.870;2023-05-13T05:39:09;15.17;;;5.90;;
69244;SDS011;56357;52.304;4.870;2023-05-13T05:41:35;14.80;;;5.47;;
69244;SDS011;56357;52.304;4.870;2023-05-13T05:44:02;12.25;;;6.05;;
69244;SDS011;56357;52.304;4.870;2023-05-13T05:46:28;11.60;;;5.95;;
69244;SDS011;56357;52.304;4.870;2023-05-13T05:48:55;12.98;;;5.80;;
69244;SDS011;56357;52.304;4.870;2023-05-13T05:51:21;15.30;;;6.07;;
69244;SDS011;56357;52.304;4.870;2023-05-13T05:53:48;14.40;;;5.85;;
69244;SDS011;56357;52.304;4.870;2023-05-13T05:56:14;17.17;;;5.82;;
69244;SDS011;56357;52.304;4.870;2023-05-13T05:58:41;15.93;;;5.93;;
69244;SDS011;56357;52.304;4.870;2023-05-13T06:01:07;16.75;;;5.80;;
69244;SDS011;56357;52.304;4.870;2023-05-13T06:03:34;14.80;;;5.97;;
69244;SDS011;56357;52.304;4.870;2023-05-13T06:06:00;15.07;;;5.68;;
69244;SDS011;56357;52.304;4.870;2023-05-13T06:08:27;13.05;;;5.55;;
69244;SDS011;56357;52.304;4.870;2023-05-13T06:10:56;11.98;;;4.75;;
69244;SDS011;56357;52.304;4.870;2023-05-13T06:13:23;12.50;;;4.72;;
69244;SDS011;56357;52.304;4.870;2023-05-13T06:15:50;11.87;;;5.20;;
69244;SDS011;56357;52.304;4.870;2023-05-13T06:18:16;10.35;;;4.72;;
69244;SDS011;56357;52.304;4.870;2023-05-13T06:20:43;13.90;;;4.45;;
69244;SDS011;56357;52.304;4.870;2023-05-13T06:23:10;13.20;;;5.68;;
69244;SDS011;56357;52.304;4.870;2023-05-13T06:25:36;11.90;;;5.35;;
69244;SDS011;56357;52.304;4.870;2023-05-13T06:28:02;14.83;;;4.70;;
69244;SDS011;56357;52.304;4.870;2023-05-13T06:30:30;13.48;;;5.57;;
69244;SDS011;56357;52.304;4.870;2023-05-13T06:32:56;13.95;;;4.95;;
69244;SDS011;56357;52.304;4.870;2023-05-13T06:35:22;17.63;;;5.15;;
69244;SDS011;56357;52.304;4.870;2023-05-13T06:37:49;22.02;;;5.60;;
69244;SDS011;56357;52.304;4.870;2023-05-13T06:40:15;13.13;;;5.17;;
69244;SDS011;56357;52.304;4.870;2023-05-13T06:42:42;16.77;;;5.90;;
69244;SDS011;56357;52.304;4.870;2023-05-13T06:45:08;16.48;;;5.68;;
69244;SDS011;56357;52.304;4.870;2023-05-13T06:47:35;15.52;;;5.20;;
69244;SDS011;56357;52.304;4.870;2023-05-13T06:50:02;13.35;;;5.47;;
69244;SDS011;56357;52.304;4.870;2023-05-13T06:52:29;18.27;;;5.00;;
69244;SDS011;56357;52.304;4.870;2023-05-13T06:54:56;15.32;;;6.10;;
69244;SDS011;56357;52.304;4.870;2023-05-13T06:57:23;20.10;;;6.15;;
69244;SDS011;56357;52.304;4.870;2023-05-13T06:59:50;19.23;;;5.57;;
69244;SDS011;56357;52.304;4.870;2023-05-13T07:02:16;13.93;;;5.32;;
69244;SDS011;56357;52.304;4.870;2023-05-13T07:04:43;14.53;;;4.60;;
69244;SDS011;56357;52.304;4.870;2023-05-13T07:07:09;15.35;;;4.90;;
69244;SDS011;56357;52.304;4.870;2023-05-13T07:09:35;14.52;;;5.63;;
69244;SDS011;56357;52.304;4.870;2023-05-13T07:12:02;10.20;;;5.03;;
69244;SDS011;56357;52.304;4.870;2023-05-13T07:14:28;12.73;;;5.10;;
69244;SDS011;56357;52.304;4.870;2023-05-13T07:16:55;15.13;;;4.70;;
69244;SDS011;56357;52.304;4.870;2023-05-13T07:19:22;16.20;;;5.70;;
69244;SDS011;56357;52.304;4.870;2023-05-13T07:21:49;15.10;;;4.75;;
69244;SDS011;56357;52.304;4.870;2023-05-13T07:24:15;13.38;;;5.22;;
69244;SDS011;56357;52.304;4.870;2023-05-13T07:26:42;19.17;;;4.57;;
69244;SDS011;56357;52.304;4.870;2023-05-13T07:29:08;18.30;;;5.47;;
69244;SDS011;56357;52.304;4.870;2023-05-13T07:31:34;15.68;;;4.65;;
69244;SDS011;56357;52.304;4.870;2023-05-13T07:34:01;18.05;;;5.63;;
69244;SDS011;56357;52.304;4.870;2023-05-13T07:36:27;14.15;;;5.15;;
69244;SDS011;56357;52.304;4.870;2023-05-13T07:38:54;13.13;;;4.53;;
69244;SDS011;56357;52.304;4.870;2023-05-13T07:41:20;17.57;;;4.90;;
69244;SDS011;56357;52.304;4.870;2023-05-13T07:43:47;18.13;;;5.10;;
69244;SDS011;56357;52.304;4.870;2023-05-13T07:46:13;16.30;;;5.00;;
69244;SDS011;56357;52.304;4.870;2023-05-13T07:48:40;16.48;;;5.03;;
69244;SDS011;56357;52.304;4.870;2023-05-13T07:51:07;25.83;;;5.28;;
69244;SDS011;56357;52.304;4.870;2023-05-13T07:53:34;18.00;;;5.17;;
69244;SDS011;56357;52.304;4.870;2023-05-13T07:56:00;12.95;;;4.55;;
69244;SDS011;56357;52.304;4.870;2023-05-13T07:58:27;22.48;;;4.80;;
69244;SDS011;56357;52.304;4.870;2023-05-13T08:00:54;18.60;;;4.35;;
69244;SDS011;56357;52.304;4.870;2023-05-13T08:03:20;17.55;;;5.07;;
69244;SDS011;56357;52.304;4.870;2023-05-13T08:05:47;17.60;;;4.70;;
69244;SDS011;56357;52.304;4.870;2023-05-13T08:08:13;12.30;;;4.43;;
69244;SDS011;56357;52.304;4.870;2023-05-13T08:10:40;13.13;;;4.95;;
69244;SDS011;56357;52.304;4.870;2023-05-13T08:13:06;14.15;;;5.15;;
69244;SDS011;56357;52.304;4.870;2023-05-13T08:15:32;16.77;;;4.07;;
69244;SDS011;56357;52.304;4.870;2023-05-13T08:18:00;19.80;;;4.70;;
69244;SDS011;56357;52.304;4.870;2023-05-13T08:20:27;14.10;;;4.50;;
69244;SDS011;56357;52.304;4.870;2023-05-13T08:22:57;18.70;;;4.70;;
69244;SDS011;56357;52.304;4.870;2023-05-13T08:25:25;10.95;;;4.68;;
69244;SDS011;56357;52.304;4.870;2023-05-13T08:27:52;10.95;;;4.70;;
69244;SDS011;56357;52.304;4.870;2023-05-13T08:30:18;15.63;;;4.70;;
69244;SDS011;56357;52.304;4.870;2023-05-13T08:32:45;15.27;;;4.75;;
69244;SDS011;56357;52.304;4.870;2023-05-13T08:35:11;20.23;;;4.72;;
69244;SDS011;56357;52.304;4.870;2023-05-13T08:37:38;20.20;;;4.70;;
69244;SDS011;56357;52.304;4.870;2023-05-13T08:40:05;17.45;;;5.05;;
69244;SDS011;56357;52.304;4.870;2023-05-13T08:42:32;16.43;;;5.27;;
69244;SDS011;56357;52.304;4.870;2023-05-13T08:45:02;17.13;;;4.28;;
69244;SDS011;56357;52.304;4.870;2023-05-13T08:48:13;15.65;;;4.65;;
69244;SDS011;56357;52.304;4.870;2023-05-13T08:50:30;17.35;;;4.35;;
69244;SDS011;56357;52.304;4.870;2023-05-13T08:52:57;17.95;;;5.40;;
69244;SDS011;56357;52.304;4.870;2023-05-13T08:55:24;17.67;;;4.50;;
69244;SDS011;56357;52.304;4.870;2023-05-13T08:57:51;14.82;;;5.00;;
69244;SDS011;56357;52.304;4.870;2023-05-13T09:00:18;15.43;;;4.32;;
69244;SDS011;56357;52.304;4.870;2023-05-13T09:02:45;12.10;;;4.55;;
69244;SDS011;56357;52.304;4.870;2023-05-13T09:05:11;16.65;;;4.57;;
69244;SDS011;56357;52.304;4.870;2023-05-13T09:07:39;13.60;;;4.23;;
69244;SDS011;56357;52.304;4.870;2023-05-13T09:10:06;14.40;;;4.45;;
69244;SDS011;56357;52.304;4.870;2023-05-13T09:15:23;14.70;;;4.55;;
69244;SDS011;56357;52.304;4.870;2023-05-13T09:18:01;14.50;;;4.43;;
69244;SDS011;56357;52.304;4.870;2023-05-13T09:20:29;18.57;;;4.73;;
69244;SDS011;56357;52.304;4.870;2023-05-13T09:22:57;23.02;;;5.00;;
69244;SDS011;56357;52.304;4.870;2023-05-13T09:25:26;19.80;;;4.80;;
69244;SDS011;56357;52.304;4.870;2023-05-13T09:27:54;15.80;;;5.03;;
69244;SDS011;56357;52.304;4.870;2023-05-13T09:30:26;20.42;;;4.85;;
69244;SDS011;56357;52.304;4.870;2023-05-13T09:35:36;15.82;;;4.63;;
69244;SDS011;56357;52.304;4.870;2023-05-13T09:38:14;13.77;;;4.07;;
69244;SDS011;56357;52.304;4.870;2023-05-13T09:40:55;17.75;;;4.63;;
69244;SDS011;56357;52.304;4.870;2023-05-13T09:43:24;19.55;;;4.70;;
69244;SDS011;56357;52.304;4.870;2023-05-13T09:45:52;15.03;;;4.40;;
69244;SDS011;56357;52.304;4.870;2023-05-13T09:48:20;15.32;;;4.82;;
69244;SDS011;56357;52.304;4.870;2023-05-13T09:50:48;13.18;;;4.50;;
69244;SDS011;56357;52.304;4.870;2023-05-13T09:53:16;11.77;;;4.72;;
69244;SDS011;56357;52.304;4.870;2023-05-13T09:55:48;16.55;;;4.90;;
69244;SDS011;56357;52.304;4.870;2023-05-13T09:58:15;19.70;;;4.80;;
69244;SDS011;56357;52.304;4.870;2023-05-13T10:00:44;17.08;;;4.80;;
69244;SDS011;56357;52.304;4.870;2023-05-13T10:03:11;15.52;;;5.05;;
69244;SDS011;56357;52.304;4.870;2023-05-13T10:05:38;11.57;;;4.22;;
69244;SDS011;56357;52.304;4.870;2023-05-13T10:08:07;13.00;;;4.88;;
69244;SDS011;56357;52.304;4.870;2023-05-13T10:10:35;11.30;;;4.97;;
69244;SDS011;56357;52.304;4.870;2023-05-13T10:13:02;13.85;;;5.30;;
69244;SDS011;56357;52.304;4.870;2023-05-13T10:15:34;19.08;;;5.15;;
69244;SDS011;56357;52.304;4.870;2023-05-13T10:18:01;15.57;;;4.50;;
69244;SDS011;56357;52.304;4.870;2023-05-13T10:20:29;14.07;;;5.38;;
69244;SDS011;56357;52.304;4.870;2023-05-13T10:22:55;19.10;;;4.97;;
69244;SDS011;56357;52.304;4.870;2023-05-13T10:25:23;14.88;;;4.75;;
69244;SDS011;56357;52.304;4.870;2023-05-13T10:27:50;16.45;;;5.22;;
69244;SDS011;56357;52.304;4.870;2023-05-13T10:30:18;16.90;;;4.90;;
69244;SDS011;56357;52.304;4.870;2023-05-13T10:32:50;20.15;;;5.22;;
69244;SDS011;56357;52.304;4.870;2023-05-13T10:35:17;16.47;;;4.67;;
69244;SDS011;56357;52.304;4.870;2023-05-13T10:40:53;14.25;;;4.95;;
69244;SDS011;56357;52.304;4.870;2023-05-13T10:44:01;15.85;;;6.50;;
69244;SDS011;56357;52.304;4.870;2023-05-13T10:46:29;13.30;;;6.70;;
69244;SDS011;56357;52.304;4.870;2023-05-13T10:48:58;15.37;;;7.30;;
69244;SDS011;56357;52.304;4.870;2023-05-13T10:51:25;13.77;;;5.90;;
69244;SDS011;56357;52.304;4.870;2023-05-13T10:53:52;14.30;;;6.68;;
69244;SDS011;56357;52.304;4.870;2023-05-13T10:56:21;25.65;;;6.68;;
69244;SDS011;56357;52.304;4.870;2023-05-13T10:58:59;18.20;;;6.60;;
69244;SDS011;56357;52.304;4.870;2023-05-13T11:01:30;22.63;;;6.57;;
69244;SDS011;56357;52.304;4.870;2023-05-13T11:04:00;17.00;;;5.68;;
69244;SDS011;56357;52.304;4.870;2023-05-13T11:08:58;20.23;;;5.85;;
69244;SDS011;56357;52.304;4.870;2023-05-13T11:11:28;20.05;;;5.80;;
69244;SDS011;56357;52.304;4.870;2023-05-13T11:14:16;14.63;;;5.33;;
69244;SDS011;56357;52.304;4.870;2023-05-13T11:16:51;23.38;;;6.50;;
69244;SDS011;56357;52.304;4.870;2023-05-13T11:19:20;17.65;;;6.50;;
69244;SDS011;56357;52.304;4.870;2023-05-13T11:21:51;22.73;;;6.35;;
69244;SDS011;56357;52.304;4.870;2023-05-13T11:24:20;21.30;;;6.03;;
69244;SDS011;56357;52.304;4.870;2023-05-13T11:26:51;25.43;;;5.40;;
69244;SDS011;56357;52.304;4.870;2023-05-13T11:29:27;19.27;;;5.90;;
69244;SDS011;56357;52.304;4.870;2023-05-13T11:31:54;21.05;;;5.57;;
69244;SDS011;56357;52.304;4.870;2023-05-13T11:34:22;18.85;;;5.57;;
69244;SDS011;56357;52.304;4.870;2023-05-13T11:36:52;23.23;;;5.30;;
69244;SDS011;56357;52.304;4.870;2023-05-13T11:39:39;21.37;;;6.47;;
69244;SDS011;56357;52.304;4.870;2023-05-13T11:42:07;26.10;;;6.43;;
69244;SDS011;56357;52.304;4.870;2023-05-13T11:44:34;15.38;;;5.32;;
69244;SDS011;56357;52.304;4.870;2023-05-13T11:47:02;23.15;;;6.32;;
69244;SDS011;56357;52.304;4.870;2023-05-13T11:49:30;25.42;;;6.72;;
69244;SDS011;56357;52.304;4.870;2023-05-13T11:52:02;17.77;;;6.30;;
69244;SDS011;56357;52.304;4.870;2023-05-13T11:54:30;18.33;;;6.38;;
69244;SDS011;56357;52.304;4.870;2023-05-13T11:56:57;16.85;;;6.60;;
69244;SDS011;56357;52.304;4.870;2023-05-13T11:59:23;17.73;;;5.63;;
69244;SDS011;56357;52.304;4.870;2023-05-13T12:01:59;24.25;;;6.20;;
69244;SDS011;56357;52.304;4.870;2023-05-13T12:04:27;15.43;;;6.03;;
69244;SDS011;56357;52.304;4.870;2023-05-13T12:06:55;15.10;;;6.35;;
69244;SDS011;56357;52.304;4.870;2023-05-13T12:09:23;16.27;;;6.10;;
69244;SDS011;56357;52.304;4.870;2023-05-13T12:11:50;21.25;;;6.38;;
69244;SDS011;56357;52.304;4.870;2023-05-13T12:14:18;16.15;;;6.25;;
69244;SDS011;56357;52.304;4.870;2023-05-13T12:16:45;15.23;;;6.40;;
69244;SDS011;56357;52.304;4.870;2023-05-13T12:19:12;16.10;;;5.05;;
69244;SDS011;56357;52.304;4.870;2023-05-13T12:21:39;12.07;;;5.28;;
69244;SDS011;56357;52.304;4.870;2023-05-13T12:24:20;17.20;;;6.00;;
69244;SDS011;56357;52.304;4.870;2023-05-13T12:26:47;14.70;;;6.47;;
69244;SDS011;56357;52.304;4.870;2023-05-13T12:29:14;12.87;;;5.93;;
69244;SDS011;56357;52.304;4.870;2023-05-13T12:31:41;18.15;;;6.18;;
69244;SDS011;56357;52.304;4.870;2023-05-13T12:34:09;17.88;;;6.07;;
69244;SDS011;56357;52.304;4.870;2023-05-13T12:36:36;20.55;;;6.20;;
69244;SDS011;56357;52.304;4.870;2023-05-13T12:39:07;15.30;;;5.53;;
69244;SDS011;56357;52.304;4.870;2023-05-13T12:41:41;15.07;;;5.50;;
69244;SDS011;56357;52.304;4.870;2023-05-13T12:44:17;23.23;;;6.85;;
69244;SDS011;56357;52.304;4.870;2023-05-13T12:46:53;13.18;;;6.65;;
69244;SDS011;56357;52.304;4.870;2023-05-13T12:49:21;17.73;;;5.90;;
69244;SDS011;56357;52.304;4.870;2023-05-13T12:51:47;14.07;;;6.07;;
69244;SDS011;56357;52.304;4.870;2023-05-13T12:54:14;16.17;;;6.07;;
69244;SDS011;56357;52.304;4.870;2023-05-13T12:56:40;17.40;;;6.40;;
69244;SDS011;56357;52.304;4.870;2023-05-13T12:59:07;17.60;;;5.85;;
69244;SDS011;56357;52.304;4.870;2023-05-13T13:01:34;17.95;;;5.30;;
69244;SDS011;56357;52.304;4.870;2023-05-13T13:04:01;28.75;;;5.32;;
69244;SDS011;56357;52.304;4.870;2023-05-13T13:06:27;15.70;;;5.30;;
69244;SDS011;56357;52.304;4.870;2023-05-13T13:08:54;17.05;;;6.13;;
69244;SDS011;56357;52.304;4.870;2023-05-13T13:11:20;18.15;;;6.45;;
69244;SDS011;56357;52.304;4.870;2023-05-13T13:13:48;17.45;;;5.95;;
69244;SDS011;56357;52.304;4.870;2023-05-13T13:16:14;17.30;;;6.60;;
69244;SDS011;56357;52.304;4.870;2023-05-13T13:18:41;13.73;;;6.33;;
69244;SDS011;56357;52.304;4.870;2023-05-13T13:21:08;12.43;;;6.63;;
69244;SDS011;56357;52.304;4.870;2023-05-13T13:23:35;12.90;;;6.25;;
69244;SDS011;56357;52.304;4.870;2023-05-13T13:26:01;12.38;;;6.18;;
69244;SDS011;56357;52.304;4.870;2023-05-13T13:28:28;12.50;;;5.68;;
69244;SDS011;56357;52.304;4.870;2023-05-13T13:30:55;12.97;;;6.03;;
69244;SDS011;56357;52.304;4.870;2023-05-13T13:33:23;13.75;;;6.07;;
69244;SDS011;56357;52.304;4.870;2023-05-13T13:35:50;10.75;;;5.80;;
69244;SDS011;56357;52.304;4.870;2023-05-13T13:38:16;13.05;;;5.72;;
69244;SDS011;56357;52.304;4.870;2023-05-13T13:40:43;11.63;;;5.22;;
69244;SDS011;56357;52.304;4.870;2023-05-13T13:43:09;9.93;;;5.60;;
69244;SDS011;56357;52.304;4.870;2023-05-13T13:45:36;15.25;;;5.50;;
69244;SDS011;56357;52.304;4.870;2023-05-13T13:48:02;10.30;;;5.10;;
69244;SDS011;56357;52.304;4.870;2023-05-13T13:50:29;10.43;;;5.50;;
69244;SDS011;56357;52.304;4.870;2023-05-13T13:52:55;11.43;;;5.30;;
69244;SDS011;56357;52.304;4.870;2023-05-13T13:55:22;11.17;;;5.00;;
69244;SDS011;56357;52.304;4.870;2023-05-13T13:57:49;14.40;;;5.22;;
69244;SDS011;56357;52.304;4.870;2023-05-13T14:00:15;12.90;;;5.25;;
69244;SDS011;56357;52.304;4.870;2023-05-13T14:02:42;10.15;;;4.85;;
69244;SDS011;56357;52.304;4.870;2023-05-13T14:05:12;12.55;;;5.78;;
69244;SDS011;56357;52.304;4.870;2023-05-13T14:07:39;11.53;;;4.37;;
69244;SDS011;56357;52.304;4.870;2023-05-13T14:10:06;18.02;;;5.13;;
69244;SDS011;56357;52.304;4.870;2023-05-13T14:12:33;10.93;;;5.10;;
69244;SDS011;56357;52.304;4.870;2023-05-13T14:15:00;13.95;;;4.90;;
69244;SDS011;56357;52.304;4.870;2023-05-13T14:17:27;11.80;;;5.05;;
69244;SDS011;56357;52.304;4.870;2023-05-13T14:19:53;10.97;;;4.67;;
69244;SDS011;56357;52.304;4.870;2023-05-13T14:22:20;10.55;;;4.93;;
69244;SDS011;56357;52.304;4.870;2023-05-13T14:24:47;11.18;;;4.90;;
69244;SDS011;56357;52.304;4.870;2023-05-13T14:27:14;10.68;;;5.03;;
69244;SDS011;56357;52.304;4.870;2023-05-13T14:29:40;12.98;;;4.57;;
69244;SDS011;56357;52.304;4.870;2023-05-13T14:32:07;10.57;;;4.00;;
69244;SDS011;56357;52.304;4.870;2023-05-13T14:34:35;10.93;;;4.57;;
69244;SDS011;56357;52.304;4.870;2023-05-13T14:37:02;12.23;;;4.70;;
69244;SDS011;56357;52.304;4.870;2023-05-13T14:39:28;9.43;;;4.30;;
69244;SDS011;56357;52.304;4.870;2023-05-13T14:41:55;13.73;;;4.93;;
69244;SDS011;56357;52.304;4.870;2023-05-13T14:44:21;11.00;;;4.57;;
69244;SDS011;56357;52.304;4.870;2023-05-13T14:46:48;8.70;;;4.30;;
69244;SDS011;56357;52.304;4.870;2023-05-13T14:49:15;10.98;;;4.75;;
69244;SDS011;56357;52.304;4.870;2023-05-13T14:51:41;13.60;;;4.80;;
69244;SDS011;56357;52.304;4.870;2023-05-13T14:54:08;14.60;;;4.60;;
69244;SDS011;56357;52.304;4.870;2023-05-13T14:56:34;17.17;;;5.83;;
69244;SDS011;56357;52.304;4.870;2023-05-13T14:59:01;16.42;;;4.82;;